createdAt,value
2023-01-31T00:00:53.238Z,54.40
2023-01-31T00:03:22.926Z,54.25
2023-01-31T00:05:51.479Z,53.83
2023-01-31T00:08:19.929Z,54.37
2023-01-31T00:10:48.421Z,53.87
2023-01-31T00:13:17.013Z,53.87
2023-01-31T00:15:46.980Z,54.08
2023-01-31T00:18:15.508Z,53.73
2023-01-31T00:20:44.023Z,53.42
2023-01-31T00:23:12.481Z,54.02
2023-01-31T00:25:41.126Z,53.95
2023-01-31T00:28:09.856Z,53.53
2023-01-31T00:30:38.535Z,54.36
2023-01-31T00:33:08.455Z,54.22
2023-01-31T00:35:42.966Z,54.63
2023-01-31T00:38:15.234Z,54.34
2023-01-31T00:40:43.906Z,55.03
2023-01-31T00:43:12.559Z,54.85
2023-01-31T00:45:42.212Z,55.21
2023-01-31T00:48:12.265Z,54.87
2023-01-31T00:50:40.860Z,55.03
2023-01-31T00:53:09.643Z,56.08
2023-01-31T00:55:38.353Z,55.58
2023-01-31T00:58:07.024Z,56.10
2023-01-31T01:00:35.928Z,55.96
2023-01-31T01:03:04.851Z,55.50
2023-01-31T01:05:35.352Z,56.00
2023-01-31T01:08:05.673Z,55.56
2023-01-31T01:10:34.708Z,56.40
2023-01-31T01:13:03.484Z,55.52
2023-01-31T01:15:32.033Z,55.80
2023-01-31T01:18:02.627Z,55.90
2023-01-31T01:20:31.227Z,55.98
2023-01-31T01:23:02.463Z,56.58
2023-01-31T01:25:31.723Z,56.33
2023-01-31T01:28:01.938Z,56.21
2023-01-31T01:30:32.190Z,57.37
2023-01-31T01:33:02.216Z,57.24
2023-01-31T01:35:30.725Z,56.63
2023-01-31T01:37:59.363Z,57.54
2023-01-31T01:40:37.923Z,57.41
2023-01-31T01:43:06.772Z,57.85
2023-01-31T01:45:36.257Z,57.41
2023-01-31T01:48:10.013Z,57.88
2023-01-31T01:50:43.024Z,58.47
2023-01-31T01:53:15.728Z,58.54
2023-01-31T01:55:48.832Z,58.49
2023-01-31T01:58:23.686Z,57.17
2023-01-31T02:00:53.296Z,57.23
2023-01-31T02:03:22.259Z,57.69
2023-01-31T02:05:54.229Z,57.43
2023-01-31T02:08:25.537Z,56.66
2023-01-31T02:10:59.390Z,56.57
2023-01-31T02:13:29.762Z,55.92
2023-01-31T02:15:59.077Z,56.37
2023-01-31T02:18:29.452Z,55.92
2023-01-31T02:21:45.103Z,56.20
2023-01-31T02:24:47.711Z,56.49
2023-01-31T02:27:45.321Z,55.97
2023-01-31T02:30:41.602Z,56.75
2023-01-31T02:33:22.753Z,57.11
2023-01-31T02:36:00.309Z,58.11
2023-01-31T02:38:38.759Z,57.78
2023-01-31T02:41:18.329Z,57.13
2023-01-31T02:44:12.249Z,56.93
2023-01-31T02:47:01.523Z,56.60
2023-01-31T02:49:39.659Z,56.68
2023-01-31T02:52:20.490Z,56.48
2023-01-31T02:55:22.976Z,56.25
2023-01-31T02:57:54.406Z,56.01
2023-01-31T03:00:24.610Z,55.58
2023-01-31T03:02:53.353Z,55.43
2023-01-31T03:05:24.159Z,54.93
2023-01-31T03:07:56.045Z,54.98
2023-01-31T03:10:57.143Z,54.60
2023-01-31T03:13:43.045Z,54.90
2023-01-31T03:16:41.687Z,55.16
2023-01-31T03:19:18.597Z,55.33
2023-01-31T03:21:54.474Z,55.98
2023-01-31T03:24:26.503Z,55.95
2023-01-31T03:26:58.443Z,55.53
2023-01-31T03:29:29.716Z,55.50
2023-01-31T03:32:05.108Z,55.02
2023-01-31T03:34:34.500Z,55.48
2023-01-31T03:37:13.131Z,55.40
2023-01-31T03:39:56.422Z,54.66
2023-01-31T03:42:30.218Z,54.73
2023-01-31T03:45:05.929Z,54.98
2023-01-31T03:47:38.914Z,54.46
2023-01-31T03:50:14.096Z,54.65
2023-01-31T03:52:47.966Z,54.71
2023-01-31T03:55:20.607Z,54.05
2023-01-31T03:57:53.686Z,53.76
2023-01-31T04:00:24.254Z,53.65
2023-01-31T04:03:06.248Z,53.52
2023-01-31T04:05:35.247Z,53.73
2023-01-31T04:08:07.189Z,53.66
2023-01-31T04:10:37.496Z,53.16
2023-01-31T04:13:06.504Z,53.16
2023-01-31T04:15:35.134Z,53.03
2023-01-31T04:18:03.701Z,52.63
2023-01-31T04:20:34.495Z,52.56
2023-01-31T04:23:04.683Z,52.75
2023-01-31T04:25:34.689Z,52.87
2023-01-31T04:28:03.237Z,52.40
2023-01-31T04:30:32.077Z,51.93
2023-01-31T04:33:00.658Z,52.28
2023-01-31T04:35:29.173Z,51.85
2023-01-31T04:37:57.816Z,51.89
2023-01-31T04:40:26.498Z,51.47
2023-01-31T04:42:56.485Z,51.03
2023-01-31T04:45:25.024Z,50.68
2023-01-31T04:47:53.577Z,50.77
2023-01-31T04:50:22.395Z,50.38
2023-01-31T04:52:52.238Z,50.20
2023-01-31T04:55:21.332Z,50.30
2023-01-31T04:57:50.198Z,50.38
2023-01-31T05:00:21.564Z,50.11
2023-01-31T05:02:50.539Z,49.56
2023-01-31T05:05:19.524Z,49.32
2023-01-31T05:07:48.529Z,49.07
2023-01-31T05:10:18.378Z,48.74
2023-01-31T05:12:48.229Z,47.80
2023-01-31T05:15:17.640Z,48.04
2023-01-31T05:17:53.457Z,47.48
2023-01-31T05:20:22.578Z,47.25
2023-01-31T05:22:51.074Z,47.26
2023-01-31T05:25:20.117Z,46.74
2023-01-31T05:27:48.777Z,47.02
2023-01-31T05:30:17.648Z,47.16
2023-01-31T05:32:49.329Z,47.14
2023-01-31T05:35:19.022Z,46.73
2023-01-31T05:37:47.894Z,47.24
2023-01-31T05:40:18.045Z,46.55
2023-01-31T05:42:46.880Z,47.49
2023-01-31T05:45:17.138Z,47.40
2023-01-31T05:47:49.134Z,47.63
2023-01-31T05:50:18.126Z,47.92
2023-01-31T05:52:51.931Z,47.93
2023-01-31T05:55:21.007Z,48.18
2023-01-31T05:57:49.931Z,48.17
2023-01-31T06:00:19.503Z,48.04
2023-01-31T06:02:49.595Z,48.40
2023-01-31T06:05:19.115Z,49.56
2023-01-31T06:07:47.833Z,49.48
2023-01-31T06:10:16.431Z,49.43
2023-01-31T06:12:44.843Z,49.88
2023-01-31T06:15:13.766Z,49.44
2023-01-31T06:17:42.345Z,49.40
2023-01-31T06:20:13.137Z,49.12
2023-01-31T06:22:43.051Z,49.45
2023-01-31T06:25:12.027Z,48.94
2023-01-31T06:27:40.645Z,49.11
2023-01-31T06:30:11.009Z,49.46
2023-01-31T06:32:39.539Z,49.62
2023-01-31T06:35:08.613Z,50.15
2023-01-31T06:37:38.608Z,49.82
2023-01-31T06:40:08.030Z,50.30
2023-01-31T06:42:36.552Z,50.59
2023-01-31T06:45:05.737Z,51.00
2023-01-31T06:47:34.330Z,51.08
2023-01-31T06:50:02.855Z,51.37
2023-01-31T06:52:31.507Z,52.10
2023-01-31T06:55:01.410Z,52.56
2023-01-31T06:57:30.373Z,52.91
2023-01-31T06:59:58.953Z,53.21
2023-01-31T07:02:27.461Z,54.20
2023-01-31T07:04:56.644Z,54.83
2023-01-31T07:07:25.289Z,54.37
2023-01-31T07:09:54.093Z,54.39
2023-01-31T07:12:24.035Z,54.52
2023-01-31T07:14:52.981Z,55.16
2023-01-31T07:17:21.823Z,54.58
2023-01-31T07:19:50.353Z,54.29
2023-01-31T07:22:18.786Z,54.66
2023-01-31T07:24:48.974Z,54.73
2023-01-31T07:27:17.666Z,55.31
2023-01-31T07:29:47.704Z,55.04
2023-01-31T07:32:16.187Z,54.99
2023-01-31T07:34:44.681Z,55.75
2023-01-31T07:37:13.350Z,55.35
2023-01-31T07:39:42.796Z,55.69
2023-01-31T07:42:11.345Z,55.95
2023-01-31T07:44:39.813Z,56.05
2023-01-31T07:47:09.758Z,55.67
2023-01-31T07:49:38.274Z,53.82
2023-01-31T07:52:08.516Z,53.33
2023-01-31T07:54:37.247Z,51.78
2023-01-31T07:57:05.971Z,51.66
2023-01-31T07:59:34.785Z,50.75
2023-01-31T08:02:20.732Z,49.45
2023-01-31T08:04:50.730Z,49.29
2023-01-31T08:07:19.362Z,49.36
2023-01-31T08:09:49.934Z,49.40
2023-01-31T08:12:18.468Z,49.40
2023-01-31T08:14:47.043Z,48.54
2023-01-31T08:17:15.852Z,48.01
2023-01-31T08:19:44.933Z,46.49
2023-01-31T08:22:14.891Z,45.72
2023-01-31T08:24:43.450Z,45.54
2023-01-31T08:27:13.035Z,44.79
2023-01-31T08:29:41.639Z,42.81
2023-01-31T08:32:10.423Z,42.23
2023-01-31T08:34:39.056Z,42.25
2023-01-31T08:37:07.586Z,41.58
2023-01-31T08:39:37.664Z,41.41
2023-01-31T08:42:06.332Z,40.92
2023-01-31T08:44:34.845Z,40.91
2023-01-31T08:47:03.625Z,40.38
2023-01-31T08:49:33.861Z,40.42
2023-01-31T08:52:02.430Z,40.50
2023-01-31T08:54:31.371Z,40.67
2023-01-31T08:57:01.312Z,40.85
2023-01-31T08:59:31.415Z,40.79
2023-01-31T09:01:59.997Z,40.39
2023-01-31T09:04:28.917Z,40.19
2023-01-31T09:06:57.517Z,39.37
2023-01-31T09:09:28.182Z,39.25
2023-01-31T09:11:57.688Z,39.57
2023-01-31T09:14:27.642Z,39.38
2023-01-31T09:16:56.350Z,40.11
2023-01-31T09:19:24.986Z,40.40
2023-01-31T09:21:53.542Z,40.18
2023-01-31T09:24:22.484Z,40.04
2023-01-31T09:26:51.337Z,40.61
2023-01-31T09:29:20.395Z,40.55
2023-01-31T09:31:54.073Z,41.04
2023-01-31T09:34:24.111Z,41.14
2023-01-31T09:36:52.645Z,41.43
2023-01-31T09:39:21.964Z,41.50
2023-01-31T09:41:54.381Z,40.87
2023-01-31T09:44:27.225Z,42.03
2023-01-31T09:47:03.733Z,41.26
2023-01-31T09:49:38.278Z,41.43
2023-01-31T09:52:07.028Z,42.33
2023-01-31T09:54:39.669Z,41.29
2023-01-31T09:57:17.539Z,40.73
2023-01-31T09:59:51.398Z,40.74
2023-01-31T10:02:45.435Z,40.66
2023-01-31T10:05:23.388Z,41.46
2023-01-31T10:08:00.982Z,41.05
2023-01-31T10:10:37.889Z,41.36
2023-01-31T10:13:15.028Z,40.10
2023-01-31T10:15:46.877Z,40.34
2023-01-31T10:18:23.246Z,40.37
2023-01-31T10:20:55.244Z,40.98
2023-01-31T10:23:30.698Z,40.83
2023-01-31T10:26:02.084Z,40.55
2023-01-31T10:28:37.849Z,39.85
2023-01-31T10:31:14.018Z,39.97
2023-01-31T10:33:50.864Z,39.82
2023-01-31T10:36:28.009Z,39.92
2023-01-31T10:39:04.177Z,39.97
2023-01-31T10:41:44.840Z,39.66
2023-01-31T10:44:23.142Z,39.18
2023-01-31T10:46:54.227Z,39.74
2023-01-31T10:49:26.134Z,40.05
2023-01-31T10:52:13.620Z,39.51
2023-01-31T10:54:54.653Z,39.74
2023-01-31T10:57:24.168Z,39.42
2023-01-31T10:59:54.350Z,39.39
2023-01-31T11:02:26.027Z,39.30
2023-01-31T11:04:58.146Z,38.48
2023-01-31T11:07:29.693Z,38.81
2023-01-31T11:09:58.755Z,38.70
2023-01-31T11:12:43.114Z,38.26
2023-01-31T11:15:18.146Z,38.69
2023-01-31T11:17:48.570Z,38.33
2023-01-31T11:20:30.227Z,38.31
2023-01-31T11:23:01.478Z,38.01
2023-01-31T11:25:32.805Z,38.12
2023-01-31T11:28:03.372Z,38.07
2023-01-31T11:30:37.000Z,37.24
2023-01-31T11:33:06.067Z,37.92
2023-01-31T11:35:37.180Z,37.02
2023-01-31T11:38:22.462Z,36.41
2023-01-31T11:40:51.242Z,37.23
2023-01-31T11:43:27.852Z,36.49
2023-01-31T11:45:59.341Z,36.56
2023-01-31T11:48:33.855Z,36.95
2023-01-31T11:51:05.205Z,36.41
2023-01-31T11:53:40.538Z,35.82
2023-01-31T11:56:14.601Z,34.88
2023-01-31T11:58:44.967Z,35.37
2023-01-31T12:01:18.206Z,34.88
2023-01-31T12:04:01.916Z,34.90
2023-01-31T12:06:34.657Z,34.34
2023-01-31T12:09:05.677Z,35.67
2023-01-31T12:11:35.573Z,34.87
2023-01-31T12:14:15.123Z,35.21
2023-01-31T12:16:44.955Z,34.71
2023-01-31T12:19:26.000Z,34.95
2023-01-31T12:22:05.095Z,35.03
2023-01-31T12:24:44.704Z,34.72
2023-01-31T12:27:26.145Z,34.39
2023-01-31T12:30:15.101Z,34.46
2023-01-31T12:33:02.422Z,34.76
2023-01-31T12:35:42.702Z,33.91
2023-01-31T12:38:26.771Z,34.63
2023-01-31T12:41:06.116Z,33.75
2023-01-31T12:43:52.998Z,33.90
2023-01-31T12:46:27.119Z,34.06
2023-01-31T12:49:21.969Z,33.58
2023-01-31T12:52:01.605Z,34.12
2023-01-31T12:54:49.491Z,34.34
2023-01-31T12:57:32.013Z,34.73
2023-01-31T13:00:13.447Z,32.86
2023-01-31T13:02:53.777Z,32.96
2023-01-31T13:05:30.194Z,32.61
2023-01-31T13:08:06.841Z,32.73
2023-01-31T13:10:40.530Z,32.79
2023-01-31T13:13:17.619Z,33.29
2023-01-31T13:15:50.681Z,33.06
2023-01-31T13:18:19.920Z,33.29
2023-01-31T13:20:52.734Z,31.67
2023-01-31T13:23:30.090Z,32.16
2023-01-31T13:26:07.750Z,32.16
2023-01-31T13:28:42.075Z,32.36
2023-01-31T13:31:19.169Z,32.85
2023-01-31T13:33:53.807Z,32.37
2023-01-31T13:36:28.801Z,32.41
2023-01-31T13:38:58.763Z,32.60
2023-01-31T13:41:31.891Z,32.54
2023-01-31T13:44:02.450Z,32.61
2023-01-31T13:46:36.495Z,32.68
2023-01-31T13:49:09.557Z,32.75
2023-01-31T13:51:41.643Z,32.75
2023-01-31T13:54:19.994Z,32.73
2023-01-31T13:56:55.028Z,32.80
2023-01-31T13:59:27.943Z,32.93
2023-01-31T14:01:59.401Z,32.86
2023-01-31T14:04:31.975Z,31.90
2023-01-31T14:07:22.212Z,32.07
2023-01-31T14:10:30.137Z,31.69
2023-01-31T14:13:39.968Z,32.75
2023-01-31T14:16:43.063Z,31.89
2023-01-31T14:20:02.011Z,32.09
2023-01-31T14:22:35.149Z,33.01
2023-01-31T14:25:06.911Z,32.43
2023-01-31T14:28:03.030Z,32.04
2023-01-31T14:30:44.721Z,33.01
2023-01-31T14:33:25.042Z,32.53
2023-01-31T14:36:19.162Z,32.82
2023-01-31T14:39:16.898Z,33.13
2023-01-31T14:42:24.810Z,34.15
2023-01-31T14:45:14.448Z,34.16
2023-01-31T14:48:00.500Z,33.38
2023-01-31T14:50:49.419Z,34.06
2023-01-31T14:53:40.807Z,33.41
2023-01-31T14:56:28.424Z,33.81
2023-01-31T14:58:57.119Z,33.62
2023-01-31T15:01:35.382Z,33.65
2023-01-31T15:04:05.853Z,34.54
2023-01-31T15:06:44.035Z,34.16
2023-01-31T15:09:36.879Z,33.81
2023-01-31T15:12:07.907Z,33.59
2023-01-31T15:14:42.118Z,33.65
2023-01-31T15:17:33.223Z,33.83
2023-01-31T15:20:16.025Z,33.36
2023-01-31T15:22:49.228Z,33.88
2023-01-31T15:25:30.431Z,34.50
2023-01-31T15:28:00.393Z,34.66
2023-01-31T15:30:34.307Z,34.29
2023-01-31T15:33:08.769Z,34.99
2023-01-31T15:35:47.772Z,34.42
2023-01-31T15:38:28.450Z,34.45
2023-01-31T15:41:20.417Z,34.38
2023-01-31T15:43:51.195Z,34.96
2023-01-31T15:46:26.022Z,35.21
2023-01-31T15:48:55.161Z,35.34
2023-01-31T15:51:24.434Z,34.78
2023-01-31T15:54:06.166Z,35.20
2023-01-31T15:56:39.564Z,35.41
2023-01-31T15:59:15.794Z,35.01
2023-01-31T16:01:50.174Z,35.05
2023-01-31T16:04:19.156Z,35.35
2023-01-31T16:06:48.734Z,35.63
2023-01-31T16:09:27.857Z,35.88
2023-01-31T16:11:58.241Z,36.28
2023-01-31T16:14:27.454Z,36.39
2023-01-31T16:17:00.300Z,36.38
2023-01-31T16:19:31.430Z,36.16
2023-01-31T16:22:00.752Z,36.18
2023-01-31T16:24:32.269Z,36.49
2023-01-31T16:27:03.682Z,36.64
2023-01-31T16:29:40.538Z,36.63
2023-01-31T16:32:18.404Z,37.24
2023-01-31T16:34:54.196Z,37.84
2023-01-31T16:37:33.622Z,37.79
2023-01-31T16:40:07.621Z,38.24
2023-01-31T16:42:39.345Z,38.68
2023-01-31T16:45:30.447Z,39.32
2023-01-31T16:48:22.644Z,38.71
2023-01-31T16:50:53.019Z,36.98
2023-01-31T16:53:32.716Z,36.19
2023-01-31T16:56:29.829Z,35.50
2023-01-31T16:59:00.290Z,35.77
2023-01-31T17:01:39.740Z,35.52
2023-01-31T17:04:20.751Z,35.67
2023-01-31T17:06:52.716Z,35.51
2023-01-31T17:09:23.638Z,35.98
2023-01-31T17:11:55.283Z,36.22
2023-01-31T17:14:24.072Z,36.86
2023-01-31T17:16:54.057Z,37.91
2023-01-31T17:19:23.613Z,38.81
2023-01-31T17:21:52.415Z,38.44
2023-01-31T17:24:23.903Z,38.16
2023-01-31T17:26:54.364Z,38.60
2023-01-31T17:29:23.543Z,38.75
2023-01-31T17:31:52.135Z,38.74
2023-01-31T17:34:22.019Z,38.78
2023-01-31T17:36:50.508Z,38.61
2023-01-31T17:39:19.711Z,38.62
2023-01-31T17:41:50.754Z,38.94
2023-01-31T17:44:22.416Z,38.91
2023-01-31T17:46:51.086Z,39.57
2023-01-31T17:49:21.844Z,39.72
2023-01-31T17:51:50.462Z,39.63
2023-01-31T17:54:19.694Z,40.47
2023-01-31T17:56:48.973Z,40.69
2023-01-31T17:59:26.552Z,41.29
2023-01-31T18:01:57.595Z,41.52
2023-01-31T18:04:26.819Z,41.49
2023-01-31T18:06:55.878Z,41.47
2023-01-31T18:09:25.930Z,41.15
2023-01-31T18:11:55.833Z,40.96
2023-01-31T18:14:24.384Z,40.82
2023-01-31T18:16:54.433Z,41.67
2023-01-31T18:19:24.987Z,41.80
2023-01-31T18:21:55.547Z,41.45
2023-01-31T18:24:25.633Z,42.13
2023-01-31T18:26:54.839Z,42.37
2023-01-31T18:29:27.700Z,43.33
2023-01-31T18:31:58.049Z,42.74
2023-01-31T18:34:28.212Z,43.04
2023-01-31T18:36:56.801Z,43.77
2023-01-31T18:39:25.352Z,43.65
2023-01-31T18:41:54.146Z,44.59
2023-01-31T18:44:23.022Z,45.74
2023-01-31T18:46:51.748Z,46.29
2023-01-31T18:49:21.211Z,45.86
2023-01-31T18:51:51.562Z,46.07
2023-01-31T18:54:21.036Z,46.33
2023-01-31T18:56:49.698Z,45.98
2023-01-31T18:59:18.842Z,45.97
2023-01-31T19:01:48.148Z,45.82
2023-01-31T19:04:16.782Z,46.50
2023-01-31T19:06:46.318Z,47.27
2023-01-31T19:09:16.358Z,48.03
2023-01-31T19:11:45.344Z,49.09
2023-01-31T19:14:15.307Z,49.44
2023-01-31T19:16:45.057Z,49.84
2023-01-31T19:19:14.094Z,49.87
2023-01-31T19:21:42.890Z,49.83
2023-01-31T19:24:15.520Z,50.24
2023-01-31T19:26:45.742Z,50.32
2023-01-31T19:29:16.639Z,50.67
2023-01-31T19:31:45.390Z,50.96
2023-01-31T19:34:14.012Z,51.14
2023-01-31T19:36:44.880Z,51.49
2023-01-31T19:39:14.442Z,51.36
2023-01-31T19:41:43.530Z,51.42
2023-01-31T19:44:13.478Z,50.13
2023-01-31T19:46:43.676Z,49.73
2023-01-31T19:49:12.244Z,49.84
2023-01-31T19:51:41.399Z,50.21
2023-01-31T19:54:14.974Z,50.39
2023-01-31T19:56:43.947Z,51.45
2023-01-31T19:59:13.841Z,51.76
2023-01-31T20:01:42.407Z,52.32
2023-01-31T20:04:11.044Z,52.86
2023-01-31T20:06:40.659Z,52.24
2023-01-31T20:09:16.195Z,52.92
2023-01-31T20:11:44.762Z,52.94
2023-01-31T20:14:14.808Z,53.08
2023-01-31T20:16:43.433Z,52.54
2023-01-31T20:19:13.089Z,53.75
2023-01-31T20:21:41.698Z,53.78
2023-01-31T20:24:10.970Z,53.66
2023-01-31T20:26:39.522Z,53.89
2023-01-31T20:29:09.225Z,53.79
2023-01-31T20:31:39.367Z,53.15
2023-01-31T20:34:07.985Z,53.24
2023-01-31T20:36:37.430Z,52.82
2023-01-31T20:39:07.339Z,53.41
2023-01-31T20:41:38.416Z,53.02
2023-01-31T20:44:07.463Z,53.72
2023-01-31T20:46:35.956Z,54.82
2023-01-31T20:49:06.091Z,54.96
2023-01-31T20:51:34.654Z,54.50
2023-01-31T20:54:04.026Z,55.31
2023-01-31T20:56:32.614Z,55.70
2023-01-31T20:59:01.597Z,55.79
2023-01-31T21:01:30.210Z,55.42
2023-01-31T21:03:58.832Z,55.60
2023-01-31T21:06:28.743Z,54.48
2023-01-31T21:08:57.531Z,54.30
2023-01-31T21:11:26.051Z,54.91
2023-01-31T21:13:54.541Z,53.77
2023-01-31T21:16:23.053Z,53.14
2023-01-31T21:18:51.643Z,53.53
2023-01-31T21:21:23.964Z,52.73
2023-01-31T21:23:55.473Z,53.54
2023-01-31T21:26:26.851Z,54.90
2023-01-31T21:28:55.569Z,54.50
2023-01-31T21:31:24.169Z,54.94
2023-01-31T21:33:53.942Z,54.29
2023-01-31T21:36:24.744Z,54.70
2023-01-31T21:38:55.212Z,54.91
2023-01-31T21:41:41.277Z,54.88
2023-01-31T21:44:09.938Z,55.50
2023-01-31T21:46:38.505Z,56.58
2023-01-31T21:49:08.453Z,57.55
2023-01-31T21:51:36.997Z,58.00
2023-01-31T21:54:07.215Z,57.63
2023-01-31T21:56:35.794Z,57.63
2023-01-31T21:59:04.383Z,58.16
2023-01-31T22:01:34.565Z,58.08
2023-01-31T22:04:03.892Z,58.02
2023-01-31T22:06:37.405Z,57.66
2023-01-31T22:09:09.254Z,57.38
2023-01-31T22:11:38.496Z,57.76
2023-01-31T22:14:08.905Z,58.12
2023-01-31T22:16:37.892Z,58.39
2023-01-31T22:19:06.669Z,58.21
2023-01-31T22:21:37.761Z,58.87
2023-01-31T22:24:11.822Z,58.77
2023-01-31T22:26:43.092Z,59.08
2023-01-31T22:29:14.339Z,58.89
2023-01-31T22:31:43.509Z,59.24
2023-01-31T22:34:15.126Z,59.06
2023-01-31T22:36:43.907Z,59.01
2023-01-31T22:39:16.193Z,59.84
2023-01-31T22:41:45.347Z,59.95
2023-01-31T22:44:14.043Z,60.14
2023-01-31T22:46:43.823Z,59.73
2023-01-31T22:49:12.426Z,59.56
2023-01-31T22:51:41.019Z,59.28
2023-01-31T22:54:09.750Z,58.94
2023-01-31T22:56:41.227Z,58.83
2023-01-31T22:59:11.075Z,58.98
2023-01-31T23:01:40.736Z,58.74
2023-01-31T23:04:11.747Z,58.65
2023-01-31T23:06:40.411Z,58.30
2023-01-31T23:09:08.925Z,58.92
2023-01-31T23:11:37.881Z,58.85
2023-01-31T23:14:07.847Z,58.48
2023-01-31T23:16:53.609Z,58.50
2023-01-31T23:19:22.665Z,58.41
2023-01-31T23:21:51.157Z,59.11
2023-01-31T23:24:20.629Z,59.15
2023-01-31T23:26:49.939Z,58.86
2023-01-31T23:29:20.601Z,58.95
2023-01-31T23:31:49.354Z,58.64
2023-01-31T23:34:17.933Z,59.57
2023-01-31T23:36:46.508Z,59.10
2023-01-31T23:39:15.215Z,59.17
2023-01-31T23:41:43.734Z,59.41
2023-01-31T23:44:12.243Z,59.58
2023-01-31T23:46:42.291Z,59.73
2023-01-31T23:49:10.849Z,59.95
2023-01-31T23:51:40.608Z,60.16
2023-01-31T23:54:09.237Z,60.11
2023-01-31T23:56:38.184Z,60.06
2023-01-31T23:59:06.819Z,60.29
